sensor_id;sensor_type;location;lat;lon;timestamp;temperature;humidity
11965;DHT22;6042;41.326;19.826;2022-11-21T00:01:15;13.40;99.90
11965;DHT22;6042;41.326;19.826;2022-11-21T00:03:44;13.50;99.90
11965;DHT22;6042;41.326;19.826;2022-11-21T00:06:13;13.50;99.90
11965;DHT22;6042;41.326;19.826;2022-11-21T00:08:42;13.60;99.90
11965;DHT22;6042;41.326;19.826;2022-11-21T00:11:11;13.80;99.90
11965;DHT22;6042;41.326;19.826;2022-11-21T00:13:41;13.80;99.90
11965;DHT22;6042;41.326;19.826;2022-11-21T00:16:13;13.90;99.90
11965;DHT22;6042;41.326;19.826;2022-11-21T00:18:42;14.00;99.90
11965;DHT22;6042;41.326;19.826;2022-11-21T00:21:12;14.00;99.90
11965;DHT22;6042;41.326;19.826;2022-11-21T00:23:41;14.10;99.90
11965;DHT22;6042;41.326;19.826;2022-11-21T00:26:10;14.00;99.90
11965;DHT22;6042;41.326;19.826;2022-11-21T00:28:40;14.00;99.90
11965;DHT22;6042;41.326;19.826;2022-11-21T00:31:16;14.00;99.90
11965;DHT22;6042;41.326;19.826;2022-11-21T00:33:47;13.90;99.90
11965;DHT22;6042;41.326;19.826;2022-11-21T00:36:15;13.90;99.90
11965;DHT22;6042;41.326;19.826;2022-11-21T00:38:44;13.90;99.90
11965;DHT22;6042;41.326;19.826;2022-11-21T00:41:13;13.90;99.90
11965;DHT22;6042;41.326;19.826;2022-11-21T00:43:41;13.90;99.90
11965;DHT22;6042;41.326;19.826;2022-11-21T00:46:10;13.90;99.90
11965;DHT22;6042;41.326;19.826;2022-11-21T00:48:38;14.00;99.90
11965;DHT22;6042;41.326;19.826;2022-11-21T00:51:08;14.00;99.90
11965;DHT22;6042;41.326;19.826;2022-11-21T00:53:36;13.80;99.90
11965;DHT22;6042;41.326;19.826;2022-11-21T00:56:07;13.60;99.90
11965;DHT22;6042;41.326;19.826;2022-11-21T00:58:36;13.60;99.90
11965;DHT22;6042;41.326;19.826;2022-11-21T01:01:05;13.40;99.90
11965;DHT22;6042;41.326;19.826;2022-11-21T01:03:35;13.40;99.90
11965;DHT22;6042;41.326;19.826;2022-11-21T01:06:05;13.40;99.90
11965;DHT22;6042;41.326;19.826;2022-11-21T01:08:37;13.40;99.90
11965;DHT22;6042;41.326;19.826;2022-11-21T01:11:09;13.40;99.90
11965;DHT22;6042;41.326;19.826;2022-11-21T01:13:38;13.40;99.90
11965;DHT22;6042;41.326;19.826;2022-11-21T01:16:14;13.40;99.90
11965;DHT22;6042;41.326;19.826;2022-11-21T01:18:43;13.40;99.90
11965;DHT22;6042;41.326;19.826;2022-11-21T01:21:13;13.40;99.90
11965;DHT22;6042;41.326;19.826;2022-11-21T01:23:44;13.50;99.90
11965;DHT22;6042;41.326;19.826;2022-11-21T01:26:13;13.60;99.90
11965;DHT22;6042;41.326;19.826;2022-11-21T01:28:42;13.70;99.90
11965;DHT22;6042;41.326;19.826;2022-11-21T01:31:12;13.70;99.90
11965;DHT22;6042;41.326;19.826;2022-11-21T01:33:42;13.80;99.90
11965;DHT22;6042;41.326;19.826;2022-11-21T01:36:12;13.90;99.90
11965;DHT22;6042;41.326;19.826;2022-11-21T01:38:44;13.80;99.90
11965;DHT22;6042;41.326;19.826;2022-11-21T01:41:15;13.90;99.90
11965;DHT22;6042;41.326;19.826;2022-11-21T01:43:44;13.90;99.90
11965;DHT22;6042;41.326;19.826;2022-11-21T01:46:14;13.90;99.90
11965;DHT22;6042;41.326;19.826;2022-11-21T01:48:49;13.90;99.90
11965;DHT22;6042;41.326;19.826;2022-11-21T01:51:24;13.90;99.90
11965;DHT22;6042;41.326;19.826;2022-11-21T01:53:57;13.90;99.90
11965;DHT22;6042;41.326;19.826;2022-11-21T01:56:27;13.90;99.90
11965;DHT22;6042;41.326;19.826;2022-11-21T01:58:59;14.00;99.90
11965;DHT22;6042;41.326;19.826;2022-11-21T02:01:29;13.90;99.90
11965;DHT22;6042;41.326;19.826;2022-11-21T02:04:01;13.90;99.90
11965;DHT22;6042;41.326;19.826;2022-11-21T02:06:31;13.90;99.90
11965;DHT22;6042;41.326;19.826;2022-11-21T02:09:02;13.80;99.90
11965;DHT22;6042;41.326;19.826;2022-11-21T02:11:35;13.80;99.90
11965;DHT22;6042;41.326;19.826;2022-11-21T02:14:04;13.80;99.90
11965;DHT22;6042;41.326;19.826;2022-11-21T02:16:34;13.90;99.90
11965;DHT22;6042;41.326;19.826;2022-11-21T02:19:03;13.90;99.90
11965;DHT22;6042;41.326;19.826;2022-11-21T02:21:40;13.90;99.90
11965;DHT22;6042;41.326;19.826;2022-11-21T02:24:19;13.90;99.90
11965;DHT22;6042;41.326;19.826;2022-11-21T02:26:52;14.00;99.90
11965;DHT22;6042;41.326;19.826;2022-11-21T02:29:21;14.00;99.90
11965;DHT22;6042;41.326;19.826;2022-11-21T02:31:50;13.90;99.90
11965;DHT22;6042;41.326;19.826;2022-11-21T02:34:18;13.80;99.90
11965;DHT22;6042;41.326;19.826;2022-11-21T02:36:47;13.60;99.90
11965;DHT22;6042;41.326;19.826;2022-11-21T02:39:19;13.50;99.90
11965;DHT22;6042;41.326;19.826;2022-11-21T02:41:56;13.30;99.90
11965;DHT22;6042;41.326;19.826;2022-11-21T02:44:34;13.20;99.90
11965;DHT22;6042;41.326;19.826;2022-11-21T02:47:04;13.10;99.90
11965;DHT22;6042;41.326;19.826;2022-11-21T02:49:39;13.00;99.90
11965;DHT22;6042;41.326;19.826;2022-11-21T02:52:09;13.10;99.90
11965;DHT22;6042;41.326;19.826;2022-11-21T02:54:37;13.10;99.90
11965;DHT22;6042;41.326;19.826;2022-11-21T02:57:07;13.00;99.90
11965;DHT22;6042;41.326;19.826;2022-11-21T02:59:38;13.10;99.90
11965;DHT22;6042;41.326;19.826;2022-11-21T03:02:06;13.10;99.90
11965;DHT22;6042;41.326;19.826;2022-11-21T03:04:35;13.10;99.90
11965;DHT22;6042;41.326;19.826;2022-11-21T03:07:04;13.20;99.90
11965;DHT22;6042;41.326;19.826;2022-11-21T03:09:32;13.10;99.90
11965;DHT22;6042;41.326;19.826;2022-11-21T03:12:06;13.20;99.90
11965;DHT22;6042;41.326;19.826;2022-11-21T03:14:36;13.20;99.90
11965;DHT22;6042;41.326;19.826;2022-11-21T03:17:04;13.20;99.90
11965;DHT22;6042;41.326;19.826;2022-11-21T03:19:33;13.10;99.90
11965;DHT22;6042;41.326;19.826;2022-11-21T03:22:01;13.10;99.90
11965;DHT22;6042;41.326;19.826;2022-11-21T03:24:30;13.00;99.90
11965;DHT22;6042;41.326;19.826;2022-11-21T03:26:58;13.00;99.90
11965;DHT22;6042;41.326;19.826;2022-11-21T03:29:29;13.10;99.90
11965;DHT22;6042;41.326;19.826;2022-11-21T03:31:58;13.10;99.90
11965;DHT22;6042;41.326;19.826;2022-11-21T03:34:26;13.10;99.90
11965;DHT22;6042;41.326;19.826;2022-11-21T03:36:55;13.00;99.90
11965;DHT22;6042;41.326;19.826;2022-11-21T03:39:24;13.00;99.90
11965;DHT22;6042;41.326;19.826;2022-11-21T03:41:52;13.00;99.90
11965;DHT22;6042;41.326;19.826;2022-11-21T03:44:20;12.90;99.90
11965;DHT22;6042;41.326;19.826;2022-11-21T03:46:50;12.90;99.90
11965;DHT22;6042;41.326;19.826;2022-11-21T03:49:19;12.90;99.90
11965;DHT22;6042;41.326;19.826;2022-11-21T03:51:47;12.80;99.90
11965;DHT22;6042;41.326;19.826;2022-11-21T03:54:16;12.80;99.90
11965;DHT22;6042;41.326;19.826;2022-11-21T03:56:44;12.80;99.90
11965;DHT22;6042;41.326;19.826;2022-11-21T03:59:15;13.00;99.90
11965;DHT22;6042;41.326;19.826;2022-11-21T04:01:43;12.90;99.90
11965;DHT22;6042;41.326;19.826;2022-11-21T04:04:14;12.90;99.90
11965;DHT22;6042;41.326;19.826;2022-11-21T04:06:42;13.00;99.90
11965;DHT22;6042;41.326;19.826;2022-11-21T04:09:11;12.90;99.90
11965;DHT22;6042;41.326;19.826;2022-11-21T04:11:39;12.90;99.90
11965;DHT22;6042;41.326;19.826;2022-11-21T04:14:08;12.80;99.90
11965;DHT22;6042;41.326;19.826;2022-11-21T04:16:36;12.80;99.90
11965;DHT22;6042;41.326;19.826;2022-11-21T04:19:05;12.90;99.90
11965;DHT22;6042;41.326;19.826;2022-11-21T04:21:35;12.90;99.90
11965;DHT22;6042;41.326;19.826;2022-11-21T04:24:04;12.80;99.90
11965;DHT22;6042;41.326;19.826;2022-11-21T04:26:32;12.90;99.90
11965;DHT22;6042;41.326;19.826;2022-11-21T04:29:01;12.80;99.90
11965;DHT22;6042;41.326;19.826;2022-11-21T04:31:29;12.80;99.90
11965;DHT22;6042;41.326;19.826;2022-11-21T04:33:58;12.80;99.90
11965;DHT22;6042;41.326;19.826;2022-11-21T04:36:27;12.90;99.90
11965;DHT22;6042;41.326;19.826;2022-11-21T04:38:57;12.90;99.90
11965;DHT22;6042;41.326;19.826;2022-11-21T04:41:26;13.00;99.90
11965;DHT22;6042;41.326;19.826;2022-11-21T04:43:55;13.00;99.90
11965;DHT22;6042;41.326;19.826;2022-11-21T04:46:23;13.00;99.90
11965;DHT22;6042;41.326;19.826;2022-11-21T04:48:55;13.00;99.90
11965;DHT22;6042;41.326;19.826;2022-11-21T04:51:24;13.00;99.90
11965;DHT22;6042;41.326;19.826;2022-11-21T04:53:53;13.10;99.90
11965;DHT22;6042;41.326;19.826;2022-11-21T04:56:23;13.10;99.90
11965;DHT22;6042;41.326;19.826;2022-11-21T04:58:52;13.00;99.90
11965;DHT22;6042;41.326;19.826;2022-11-21T05:01:21;13.10;99.90
11965;DHT22;6042;41.326;19.826;2022-11-21T05:03:51;13.00;99.90
11965;DHT22;6042;41.326;19.826;2022-11-21T05:06:20;12.90;99.90
11965;DHT22;6042;41.326;19.826;2022-11-21T05:08:49;12.90;99.90
11965;DHT22;6042;41.326;19.826;2022-11-21T05:11:20;12.90;99.90
11965;DHT22;6042;41.326;19.826;2022-11-21T05:14:09;12.80;99.90
11965;DHT22;6042;41.326;19.826;2022-11-21T05:16:37;12.80;99.90
11965;DHT22;6042;41.326;19.826;2022-11-21T05:19:07;12.70;99.90
11965;DHT22;6042;41.326;19.826;2022-11-21T05:21:36;12.70;99.90
11965;DHT22;6042;41.326;19.826;2022-11-21T05:24:04;12.70;99.90
11965;DHT22;6042;41.326;19.826;2022-11-21T05:26:33;12.70;99.90
11965;DHT22;6042;41.326;19.826;2022-11-21T05:29:01;12.80;99.90
11965;DHT22;6042;41.326;19.826;2022-11-21T05:31:31;12.80;99.90
11965;DHT22;6042;41.326;19.826;2022-11-21T05:34:00;12.70;99.90
11965;DHT22;6042;41.326;19.826;2022-11-21T05:36:28;12.70;99.90
11965;DHT22;6042;41.326;19.826;2022-11-21T05:38:59;12.60;99.90
11965;DHT22;6042;41.326;19.826;2022-11-21T05:41:27;12.60;99.90
11965;DHT22;6042;41.326;19.826;2022-11-21T05:43:56;12.70;99.90
11965;DHT22;6042;41.326;19.826;2022-11-21T05:46:24;12.70;99.90
11965;DHT22;6042;41.326;19.826;2022-11-21T05:48:54;12.70;99.90
11965;DHT22;6042;41.326;19.826;2022-11-21T05:51:23;12.70;99.90
11965;DHT22;6042;41.326;19.826;2022-11-21T05:53:51;12.70;99.90
11965;DHT22;6042;41.326;19.826;2022-11-21T05:56:20;12.80;99.90
11965;DHT22;6042;41.326;19.826;2022-11-21T05:58:48;12.90;99.90
11965;DHT22;6042;41.326;19.826;2022-11-21T06:01:17;13.00;99.90
11965;DHT22;6042;41.326;19.826;2022-11-21T06:04:10;13.00;99.90
11965;DHT22;6042;41.326;19.826;2022-11-21T06:06:38;13.10;99.90
11965;DHT22;6042;41.326;19.826;2022-11-21T06:09:08;13.10;99.90
11965;DHT22;6042;41.326;19.826;2022-11-21T06:11:36;13.00;99.90
11965;DHT22;6042;41.326;19.826;2022-11-21T06:14:05;13.00;99.90
11965;DHT22;6042;41.326;19.826;2022-11-21T06:16:34;13.00;99.90
11965;DHT22;6042;41.326;19.826;2022-11-21T06:19:02;13.00;99.90
11965;DHT22;6042;41.326;19.826;2022-11-21T06:21:32;12.90;99.90
11965;DHT22;6042;41.326;19.826;2022-11-21T06:24:03;12.90;99.90
11965;DHT22;6042;41.326;19.826;2022-11-21T06:26:32;12.80;99.90
11965;DHT22;6042;41.326;19.826;2022-11-21T06:29:00;12.70;99.90
11965;DHT22;6042;41.326;19.826;2022-11-21T06:31:30;12.60;99.90
11965;DHT22;6042;41.326;19.826;2022-11-21T06:33:59;12.60;99.90
11965;DHT22;6042;41.326;19.826;2022-11-21T06:36:27;12.50;99.90
11965;DHT22;6042;41.326;19.826;2022-11-21T06:38:57;12.40;99.90
11965;DHT22;6042;41.326;19.826;2022-11-21T06:41:26;12.30;99.90
11965;DHT22;6042;41.326;19.826;2022-11-21T06:43:59;12.20;99.90
11965;DHT22;6042;41.326;19.826;2022-11-21T06:46:28;12.20;99.90
11965;DHT22;6042;41.326;19.826;2022-11-21T06:48:57;12.10;99.90
11965;DHT22;6042;41.326;19.826;2022-11-21T06:51:25;12.00;99.90
11965;DHT22;6042;41.326;19.826;2022-11-21T06:53:57;12.00;99.90
11965;DHT22;6042;41.326;19.826;2022-11-21T06:56:27;12.00;99.90
11965;DHT22;6042;41.326;19.826;2022-11-21T06:58:57;12.10;99.90
11965;DHT22;6042;41.326;19.826;2022-11-21T07:01:26;12.10;99.90
11965;DHT22;6042;41.326;19.826;2022-11-21T07:03:55;12.10;99.90
11965;DHT22;6042;41.326;19.826;2022-11-21T07:06:23;12.10;99.90
11965;DHT22;6042;41.326;19.826;2022-11-21T07:08:53;12.10;99.90
11965;DHT22;6042;41.326;19.826;2022-11-21T07:11:43;12.20;99.90
11965;DHT22;6042;41.326;19.826;2022-11-21T07:14:12;12.30;99.90
11965;DHT22;6042;41.326;19.826;2022-11-21T07:16:40;12.30;99.90
11965;DHT22;6042;41.326;19.826;2022-11-21T07:19:08;12.30;99.90
11965;DHT22;6042;41.326;19.826;2022-11-21T07:21:37;12.20;99.90
11965;DHT22;6042;41.326;19.826;2022-11-21T07:24:06;12.30;99.90
11965;DHT22;6042;41.326;19.826;2022-11-21T07:26:34;12.30;99.90
11965;DHT22;6042;41.326;19.826;2022-11-21T07:29:04;12.40;99.90
11965;DHT22;6042;41.326;19.826;2022-11-21T07:31:33;12.50;99.90
11965;DHT22;6042;41.326;19.826;2022-11-21T07:34:01;12.40;99.90
11965;DHT22;6042;41.326;19.826;2022-11-21T07:36:30;12.50;99.90
11965;DHT22;6042;41.326;19.826;2022-11-21T07:38:59;12.60;99.90
11965;DHT22;6042;41.326;19.826;2022-11-21T07:41:29;12.80;99.90
11965;DHT22;6042;41.326;19.826;2022-11-21T07:43:57;12.80;99.90
11965;DHT22;6042;41.326;19.826;2022-11-21T07:46:29;12.90;99.90
11965;DHT22;6042;41.326;19.826;2022-11-21T07:48:58;12.90;99.90
11965;DHT22;6042;41.326;19.826;2022-11-21T07:51:29;12.90;99.90
11965;DHT22;6042;41.326;19.826;2022-11-21T07:53:58;13.00;99.90
11965;DHT22;6042;41.326;19.826;2022-11-21T07:56:27;13.10;99.90
11965;DHT22;6042;41.326;19.826;2022-11-21T07:58:55;13.40;99.90
11965;DHT22;6042;41.326;19.826;2022-11-21T08:01:24;13.60;99.90
11965;DHT22;6042;41.326;19.826;2022-11-21T08:03:54;13.80;99.90
11965;DHT22;6042;41.326;19.826;2022-11-21T08:06:22;13.90;99.90
11965;DHT22;6042;41.326;19.826;2022-11-21T08:08:52;14.00;99.90
11965;DHT22;6042;41.326;19.826;2022-11-21T08:11:24;14.20;99.90
11965;DHT22;6042;41.326;19.826;2022-11-21T08:13:52;14.40;99.90
11965;DHT22;6042;41.326;19.826;2022-11-21T08:16:21;14.20;99.90
11965;DHT22;6042;41.326;19.826;2022-11-21T08:18:56;14.00;99.90
11965;DHT22;6042;41.326;19.826;2022-11-21T08:21:24;13.70;99.90
11965;DHT22;6042;41.326;19.826;2022-11-21T08:23:53;13.60;99.90
11965;DHT22;6042;41.326;19.826;2022-11-21T08:26:22;13.60;99.90
11965;DHT22;6042;41.326;19.826;2022-11-21T08:28:50;13.60;99.90
11965;DHT22;6042;41.326;19.826;2022-11-21T08:31:25;13.90;99.90
11965;DHT22;6042;41.326;19.826;2022-11-21T08:33:56;14.30;99.90
11965;DHT22;6042;41.326;19.826;2022-11-21T08:36:25;14.60;99.90
11965;DHT22;6042;41.326;19.826;2022-11-21T08:38:54;14.90;99.90
11965;DHT22;6042;41.326;19.826;2022-11-21T08:41:22;14.90;99.90
11965;DHT22;6042;41.326;19.826;2022-11-21T08:44:08;14.80;99.90
11965;DHT22;6042;41.326;19.826;2022-11-21T08:46:40;14.20;99.90
11965;DHT22;6042;41.326;19.826;2022-11-21T08:49:10;13.60;99.90
11965;DHT22;6042;41.326;19.826;2022-11-21T08:51:38;13.20;99.90
11965;DHT22;6042;41.326;19.826;2022-11-21T08:54:08;13.00;99.90
11965;DHT22;6042;41.326;19.826;2022-11-21T08:56:37;12.90;99.90
11965;DHT22;6042;41.326;19.826;2022-11-21T08:59:05;12.90;99.90
11965;DHT22;6042;41.326;19.826;2022-11-21T09:01:34;12.90;99.90
11965;DHT22;6042;41.326;19.826;2022-11-21T09:04:03;13.10;99.90
11965;DHT22;6042;41.326;19.826;2022-11-21T09:06:33;13.40;99.90
11965;DHT22;6042;41.326;19.826;2022-11-21T09:09:04;13.60;99.90
11965;DHT22;6042;41.326;19.826;2022-11-21T09:11:33;13.70;99.90
11965;DHT22;6042;41.326;19.826;2022-11-21T09:14:02;13.80;99.90
11965;DHT22;6042;41.326;19.826;2022-11-21T09:16:48;13.90;99.90
11965;DHT22;6042;41.326;19.826;2022-11-21T09:19:34;14.10;99.90
11965;DHT22;6042;41.326;19.826;2022-11-21T09:22:04;14.20;99.90
11965;DHT22;6042;41.326;19.826;2022-11-21T09:24:32;14.10;99.90
11965;DHT22;6042;41.326;19.826;2022-11-21T09:27:01;14.00;99.90
11965;DHT22;6042;41.326;19.826;2022-11-21T09:29:29;13.50;99.90
11965;DHT22;6042;41.326;19.826;2022-11-21T09:31:58;13.20;99.90
11965;DHT22;6042;41.326;19.826;2022-11-21T09:34:26;13.10;99.90
11965;DHT22;6042;41.326;19.826;2022-11-21T09:36:55;12.90;99.90
11965;DHT22;6042;41.326;19.826;2022-11-21T09:39:25;12.80;99.90
11965;DHT22;6042;41.326;19.826;2022-11-21T09:42:00;12.90;99.90
11965;DHT22;6042;41.326;19.826;2022-11-21T09:44:47;12.90;99.90
11965;DHT22;6042;41.326;19.826;2022-11-21T09:47:22;12.70;99.90
11965;DHT22;6042;41.326;19.826;2022-11-21T09:49:56;12.70;99.90
11965;DHT22;6042;41.326;19.826;2022-11-21T09:52:33;12.70;99.90
11965;DHT22;6042;41.326;19.826;2022-11-21T09:55:16;12.70;99.90
11965;DHT22;6042;41.326;19.826;2022-11-21T09:57:48;12.80;99.90
11965;DHT22;6042;41.326;19.826;2022-11-21T10:00:21;12.90;99.90
11965;DHT22;6042;41.326;19.826;2022-11-21T10:02:50;13.00;99.90
11965;DHT22;6042;41.326;19.826;2022-11-21T10:05:24;13.20;99.90
11965;DHT22;6042;41.326;19.826;2022-11-21T10:07:58;13.50;99.90
11965;DHT22;6042;41.326;19.826;2022-11-21T10:10:49;13.80;99.90
11965;DHT22;6042;41.326;19.826;2022-11-21T10:13:38;14.00;99.90
11965;DHT22;6042;41.326;19.826;2022-11-21T10:16:17;14.20;99.90
11965;DHT22;6042;41.326;19.826;2022-11-21T10:19:21;14.30;99.90
11965;DHT22;6042;41.326;19.826;2022-11-21T10:22:17;14.50;99.90
11965;DHT22;6042;41.326;19.826;2022-11-21T10:24:54;14.40;99.90
11965;DHT22;6042;41.326;19.826;2022-11-21T10:27:31;14.50;99.90
11965;DHT22;6042;41.326;19.826;2022-11-21T10:30:04;14.60;99.90
11965;DHT22;6042;41.326;19.826;2022-11-21T10:32:36;14.70;99.90
11965;DHT22;6042;41.326;19.826;2022-11-21T10:35:14;14.70;99.90
11965;DHT22;6042;41.326;19.826;2022-11-21T10:37:47;14.70;99.90
11965;DHT22;6042;41.326;19.826;2022-11-21T10:40:26;14.90;99.90
11965;DHT22;6042;41.326;19.826;2022-11-21T10:43:05;14.90;99.90
11965;DHT22;6042;41.326;19.826;2022-11-21T10:45:48;15.00;99.90
11965;DHT22;6042;41.326;19.826;2022-11-21T10:48:17;14.80;99.90
11965;DHT22;6042;41.326;19.826;2022-11-21T10:51:04;14.70;99.90
11965;DHT22;6042;41.326;19.826;2022-11-21T10:53:38;14.60;99.90
11965;DHT22;6042;41.326;19.826;2022-11-21T10:56:28;14.70;99.90
11965;DHT22;6042;41.326;19.826;2022-11-21T10:59:12;14.80;99.90
11965;DHT22;6042;41.326;19.826;2022-11-21T11:01:56;15.00;99.90
11965;DHT22;6042;41.326;19.826;2022-11-21T11:04:26;15.00;99.90
11965;DHT22;6042;41.326;19.826;2022-11-21T11:07:21;15.00;99.90
11965;DHT22;6042;41.326;19.826;2022-11-21T11:09:50;14.90;99.90
11965;DHT22;6042;41.326;19.826;2022-11-21T11:12:25;14.80;99.90
11965;DHT22;6042;41.326;19.826;2022-11-21T11:15:20;14.70;99.90
11965;DHT22;6042;41.326;19.826;2022-11-21T11:17:54;14.40;99.90
11965;DHT22;6042;41.326;19.826;2022-11-21T11:20:36;14.20;99.90
11965;DHT22;6042;41.326;19.826;2022-11-21T11:23:32;14.10;99.90
11965;DHT22;6042;41.326;19.826;2022-11-21T11:26:00;13.70;99.90
11965;DHT22;6042;41.326;19.826;2022-11-21T11:28:34;13.40;99.90
11965;DHT22;6042;41.326;19.826;2022-11-21T11:31:06;13.20;99.90
11965;DHT22;6042;41.326;19.826;2022-11-21T11:33:36;13.10;99.90
11965;DHT22;6042;41.326;19.826;2022-11-21T11:36:16;13.20;99.90
11965;DHT22;6042;41.326;19.826;2022-11-21T11:38:51;13.30;99.90
11965;DHT22;6042;41.326;19.826;2022-11-21T11:41:48;13.30;99.90
11965;DHT22;6042;41.326;19.826;2022-11-21T11:44:50;13.30;99.90
11965;DHT22;6042;41.326;19.826;2022-11-21T11:47:47;13.40;99.90
11965;DHT22;6042;41.326;19.826;2022-11-21T11:50:23;13.40;99.90
11965;DHT22;6042;41.326;19.826;2022-11-21T11:53:00;13.30;99.90
11965;DHT22;6042;41.326;19.826;2022-11-21T11:55:35;13.30;99.90
11965;DHT22;6042;41.326;19.826;2022-11-21T11:58:10;13.20;99.90
11965;DHT22;6042;41.326;19.826;2022-11-21T12:00:43;13.00;99.90
11965;DHT22;6042;41.326;19.826;2022-11-21T12:03:17;12.90;99.90
11965;DHT22;6042;41.326;19.826;2022-11-21T12:05:58;12.90;99.90
11965;DHT22;6042;41.326;19.826;2022-11-21T12:08:42;12.80;99.90
11965;DHT22;6042;41.326;19.826;2022-11-21T12:11:25;12.80;99.90
11965;DHT22;6042;41.326;19.826;2022-11-21T12:14:29;13.00;99.90
11965;DHT22;6042;41.326;19.826;2022-11-21T12:17:36;13.10;99.90
11965;DHT22;6042;41.326;19.826;2022-11-21T12:20:15;13.00;99.90
11965;DHT22;6042;41.326;19.826;2022-11-21T12:22:46;12.90;99.90
11965;DHT22;6042;41.326;19.826;2022-11-21T12:25:18;12.80;99.90
11965;DHT22;6042;41.326;19.826;2022-11-21T12:27:51;12.80;99.90
11965;DHT22;6042;41.326;19.826;2022-11-21T12:30:49;12.80;99.90
11965;DHT22;6042;41.326;19.826;2022-11-21T12:33:24;12.70;99.90
11965;DHT22;6042;41.326;19.826;2022-11-21T12:36:12;12.90;99.90
11965;DHT22;6042;41.326;19.826;2022-11-21T12:39:06;13.20;99.90
11965;DHT22;6042;41.326;19.826;2022-11-21T12:41:45;13.50;99.90
11965;DHT22;6042;41.326;19.826;2022-11-21T12:44:48;14.10;99.90
11965;DHT22;6042;41.326;19.826;2022-11-21T12:47:30;14.40;99.90
11965;DHT22;6042;41.326;19.826;2022-11-21T12:50:28;14.50;99.90
11965;DHT22;6042;41.326;19.826;2022-11-21T12:53:21;14.40;99.90
11965;DHT22;6042;41.326;19.826;2022-11-21T12:56:16;14.30;99.90
11965;DHT22;6042;41.326;19.826;2022-11-21T12:58:51;14.10;99.90
11965;DHT22;6042;41.326;19.826;2022-11-21T13:01:28;14.10;99.90
11965;DHT22;6042;41.326;19.826;2022-11-21T13:03:59;14.20;99.90
11965;DHT22;6042;41.326;19.826;2022-11-21T13:06:31;14.20;99.90
11965;DHT22;6042;41.326;19.826;2022-11-21T13:09:06;14.20;99.90
11965;DHT22;6042;41.326;19.826;2022-11-21T13:11:44;14.10;99.90
11965;DHT22;6042;41.326;19.826;2022-11-21T13:14:39;14.00;99.90
11965;DHT22;6042;41.326;19.826;2022-11-21T13:17:21;14.00;99.90
11965;DHT22;6042;41.326;19.826;2022-11-21T13:19:53;13.90;99.90
11965;DHT22;6042;41.326;19.826;2022-11-21T13:22:51;13.90;99.90
11965;DHT22;6042;41.326;19.826;2022-11-21T13:25:40;13.90;99.90
11965;DHT22;6042;41.326;19.826;2022-11-21T13:28:37;13.90;99.90
11965;DHT22;6042;41.326;19.826;2022-11-21T13:31:40;13.70;99.90
11965;DHT22;6042;41.326;19.826;2022-11-21T13:40:34;13.50;99.90
11965;DHT22;6042;41.326;19.826;2022-11-21T13:43:23;13.50;99.90
11965;DHT22;6042;41.326;19.826;2022-11-21T13:46:01;13.40;99.90
11965;DHT22;6042;41.326;19.826;2022-11-21T13:48:55;13.30;99.90
11965;DHT22;6042;41.326;19.826;2022-11-21T13:51:52;13.50;99.90
11965;DHT22;6042;41.326;19.826;2022-11-21T13:54:45;13.60;99.90
11965;DHT22;6042;41.326;19.826;2022-11-21T13:57:43;13.70;99.90
11965;DHT22;6042;41.326;19.826;2022-11-21T14:00:26;13.60;99.90
11965;DHT22;6042;41.326;19.826;2022-11-21T14:06:17;13.60;99.90
11965;DHT22;6042;41.326;19.826;2022-11-21T14:09:18;13.60;99.90
11965;DHT22;6042;41.326;19.826;2022-11-21T14:11:49;13.60;99.90
11965;DHT22;6042;41.326;19.826;2022-11-21T14:14:27;13.50;99.90
11965;DHT22;6042;41.326;19.826;2022-11-21T14:19:59;13.60;99.90
11965;DHT22;6042;41.326;19.826;2022-11-21T14:22:33;13.50;99.90
11965;DHT22;6042;41.326;19.826;2022-11-21T14:25:15;13.50;99.90
11965;DHT22;6042;41.326;19.826;2022-11-21T14:27:45;13.60;99.90
11965;DHT22;6042;41.326;19.826;2022-11-21T14:30:29;13.60;99.90
11965;DHT22;6042;41.326;19.826;2022-11-21T14:33:20;13.70;99.90
11965;DHT22;6042;41.326;19.826;2022-11-21T14:35:52;13.70;99.90
11965;DHT22;6042;41.326;19.826;2022-11-21T14:38:22;13.60;99.90
11965;DHT22;6042;41.326;19.826;2022-11-21T14:41:17;13.40;99.90
11965;DHT22;6042;41.326;19.826;2022-11-21T14:43:49;13.30;99.90
11965;DHT22;6042;41.326;19.826;2022-11-21T14:46:29;13.30;99.90
11965;DHT22;6042;41.326;19.826;2022-11-21T14:49:21;13.40;99.90
11965;DHT22;6042;41.326;19.826;2022-11-21T14:51:52;13.40;99.90
11965;DHT22;6042;41.326;19.826;2022-11-21T14:54:24;13.50;99.90
11965;DHT22;6042;41.326;19.826;2022-11-21T14:56:56;13.70;99.90
11965;DHT22;6042;41.326;19.826;2022-11-21T14:59:29;13.70;99.90
11965;DHT22;6042;41.326;19.826;2022-11-21T15:02:01;13.70;99.90
11965;DHT22;6042;41.326;19.826;2022-11-21T15:04:34;13.80;99.90
11965;DHT22;6042;41.326;19.826;2022-11-21T15:07:03;13.80;99.90
11965;DHT22;6042;41.326;19.826;2022-11-21T15:09:32;13.70;99.90
11965;DHT22;6042;41.326;19.826;2022-11-21T15:12:27;13.70;99.90
11965;DHT22;6042;41.326;19.826;2022-11-21T15:14:59;13.70;99.90
11965;DHT22;6042;41.326;19.826;2022-11-21T15:17:30;13.70;99.90
11965;DHT22;6042;41.326;19.826;2022-11-21T15:20:05;13.60;99.90
11965;DHT22;6042;41.326;19.826;2022-11-21T15:22:57;13.40;99.90
11965;DHT22;6042;41.326;19.826;2022-11-21T15:25:28;13.20;99.90
11965;DHT22;6042;41.326;19.826;2022-11-21T15:28:07;12.80;99.90
11965;DHT22;6042;41.326;19.826;2022-11-21T15:30:38;12.50;99.90
11965;DHT22;6042;41.326;19.826;2022-11-21T15:33:10;12.30;99.90
11965;DHT22;6042;41.326;19.826;2022-11-21T15:35:51;12.30;99.90
11965;DHT22;6042;41.326;19.826;2022-11-21T15:38:25;12.50;99.90
11965;DHT22;6042;41.326;19.826;2022-11-21T15:40:59;12.70;99.90
11965;DHT22;6042;41.326;19.826;2022-11-21T15:43:37;12.80;99.90
11965;DHT22;6042;41.326;19.826;2022-11-21T15:46:13;12.90;99.90
11965;DHT22;6042;41.326;19.826;2022-11-21T15:48:44;12.90;99.90
11965;DHT22;6042;41.326;19.826;2022-11-21T15:51:43;12.90;99.90
11965;DHT22;6042;41.326;19.826;2022-11-21T15:54:34;13.00;99.90
11965;DHT22;6042;41.326;19.826;2022-11-21T15:57:03;12.80;99.90
11965;DHT22;6042;41.326;19.826;2022-11-21T15:59:31;12.80;99.90
11965;DHT22;6042;41.326;19.826;2022-11-21T16:02:00;12.70;99.90
11965;DHT22;6042;41.326;19.826;2022-11-21T16:04:29;12.80;99.90
11965;DHT22;6042;41.326;19.826;2022-11-21T16:06:59;12.70;99.90
11965;DHT22;6042;41.326;19.826;2022-11-21T16:09:28;12.80;99.90
11965;DHT22;6042;41.326;19.826;2022-11-21T16:11:57;12.80;99.90
11965;DHT22;6042;41.326;19.826;2022-11-21T16:14:25;12.80;99.90
11965;DHT22;6042;41.326;19.826;2022-11-21T16:16:54;12.90;99.90
11965;DHT22;6042;41.326;19.826;2022-11-21T16:19:24;12.90;99.90
11965;DHT22;6042;41.326;19.826;2022-11-21T16:21:53;12.90;99.90
11965;DHT22;6042;41.326;19.826;2022-11-21T16:24:23;12.90;99.90